sensor_id;sensor_type;location;lat;lon;timestamp;P1;durP1;ratioP1;P2;durP2;ratioP2
3757;SDS011;1894;51.038;13.692;2023-01-28T00:00:53;20.03;;;13.20;;
3757;SDS011;1894;51.038;13.692;2023-01-28T00:03:20;15.23;;;10.30;;
3757;SDS011;1894;51.038;13.692;2023-01-28T00:05:48;17.10;;;10.50;;
3757;SDS011;1894;51.038;13.692;2023-01-28T00:08:15;14.20;;;9.67;;
3757;SDS011;1894;51.038;13.692;2023-01-28T00:10:42;15.63;;;10.00;;
3757;SDS011;1894;51.038;13.692;2023-01-28T00:13:10;12.90;;;9.07;;
3757;SDS011;1894;51.038;13.692;2023-01-28T00:15:40;10.93;;;9.00;;
3757;SDS011;1894;51.038;13.692;2023-01-28T00:18:07;11.33;;;8.90;;
3757;SDS011;1894;51.038;13.692;2023-01-28T00:20:35;11.83;;;7.97;;
3757;SDS011;1894;51.038;13.692;2023-01-28T00:23:02;12.40;;;9.27;;
3757;SDS011;1894;51.038;13.692;2023-01-28T00:25:29;16.80;;;9.30;;
3757;SDS011;1894;51.038;13.692;2023-01-28T00:27:56;13.20;;;8.83;;
3757;SDS011;1894;51.038;13.692;2023-01-28T00:30:24;12.63;;;9.17;;
3757;SDS011;1894;51.038;13.692;2023-01-28T00:32:52;12.07;;;9.60;;
3757;SDS011;1894;51.038;13.692;2023-01-28T00:35:21;13.43;;;9.30;;
3757;SDS011;1894;51.038;13.692;2023-01-28T00:37:48;10.43;;;8.07;;
3757;SDS011;1894;51.038;13.692;2023-01-28T00:40:15;9.60;;;7.50;;
3757;SDS011;1894;51.038;13.692;2023-01-28T00:42:43;9.50;;;8.43;;
3757;SDS011;1894;51.038;13.692;2023-01-28T00:45:10;12.23;;;9.03;;
3757;SDS011;1894;51.038;13.692;2023-01-28T00:47:38;8.87;;;7.10;;
3757;SDS011;1894;51.038;13.692;2023-01-28T00:50:05;9.40;;;7.00;;
3757;SDS011;1894;51.038;13.692;2023-01-28T00:52:33;13.43;;;8.37;;
3757;SDS011;1894;51.038;13.692;2023-01-28T00:55:00;12.03;;;8.33;;
3757;SDS011;1894;51.038;13.692;2023-01-28T00:57:28;9.43;;;7.00;;
3757;SDS011;1894;51.038;13.692;2023-01-28T00:59:55;10.70;;;7.90;;
3757;SDS011;1894;51.038;13.692;2023-01-28T01:02:22;8.23;;;7.43;;
3757;SDS011;1894;51.038;13.692;2023-01-28T01:04:49;9.77;;;7.70;;
3757;SDS011;1894;51.038;13.692;2023-01-28T01:07:26;15.80;;;7.90;;
3757;SDS011;1894;51.038;13.692;2023-01-28T01:10:11;10.80;;;7.83;;
3757;SDS011;1894;51.038;13.692;2023-01-28T01:12:44;13.07;;;8.13;;
3757;SDS011;1894;51.038;13.692;2023-01-28T01:15:12;10.50;;;7.90;;
3757;SDS011;1894;51.038;13.692;2023-01-28T01:17:41;11.43;;;7.73;;
3757;SDS011;1894;51.038;13.692;2023-01-28T01:20:18;15.57;;;8.30;;
3757;SDS011;1894;51.038;13.692;2023-01-28T01:22:49;13.97;;;8.37;;
3757;SDS011;1894;51.038;13.692;2023-01-28T01:25:18;10.07;;;7.87;;
3757;SDS011;1894;51.038;13.692;2023-01-28T01:27:49;9.07;;;7.70;;
3757;SDS011;1894;51.038;13.692;2023-01-28T01:30:16;13.07;;;10.00;;
3757;SDS011;1894;51.038;13.692;2023-01-28T01:32:44;14.20;;;10.17;;
3757;SDS011;1894;51.038;13.692;2023-01-28T01:35:11;15.33;;;10.50;;
3757;SDS011;1894;51.038;13.692;2023-01-28T01:37:38;12.40;;;9.40;;
3757;SDS011;1894;51.038;13.692;2023-01-28T01:40:10;14.20;;;10.27;;
3757;SDS011;1894;51.038;13.692;2023-01-28T01:42:38;14.33;;;9.73;;
3757;SDS011;1894;51.038;13.692;2023-01-28T01:45:10;15.97;;;10.80;;
3757;SDS011;1894;51.038;13.692;2023-01-28T01:47:56;15.30;;;10.20;;
3757;SDS011;1894;51.038;13.692;2023-01-28T01:50:33;18.87;;;10.80;;
3757;SDS011;1894;51.038;13.692;2023-01-28T01:53:10;14.50;;;9.50;;
3757;SDS011;1894;51.038;13.692;2023-01-28T01:55:43;15.27;;;10.80;;
3757;SDS011;1894;51.038;13.692;2023-01-28T01:58:15;11.40;;;8.23;;
3757;SDS011;1894;51.038;13.692;2023-01-28T02:00:45;14.57;;;8.07;;
3757;SDS011;1894;51.038;13.692;2023-01-28T02:03:13;13.17;;;9.53;;
3757;SDS011;1894;51.038;13.692;2023-01-28T02:05:45;17.97;;;10.13;;
3757;SDS011;1894;51.038;13.692;2023-01-28T02:08:15;16.97;;;9.50;;
3757;SDS011;1894;51.038;13.692;2023-01-28T02:10:49;11.60;;;7.57;;
3757;SDS011;1894;51.038;13.692;2023-01-28T02:13:21;17.07;;;8.23;;
3757;SDS011;1894;51.038;13.692;2023-01-28T02:15:54;18.60;;;8.47;;
3757;SDS011;1894;51.038;13.692;2023-01-28T02:18:24;17.43;;;8.20;;
3757;SDS011;1894;51.038;13.692;2023-01-28T02:28:56;14.77;;;9.07;;
3757;SDS011;1894;51.038;13.692;2023-01-28T02:31:57;9.83;;;6.77;;
3757;SDS011;1894;51.038;13.692;2023-01-28T02:34:51;11.33;;;7.13;;
3757;SDS011;1894;51.038;13.692;2023-01-28T02:37:33;10.33;;;6.70;;
3757;SDS011;1894;51.038;13.692;2023-01-28T02:40:14;9.60;;;7.43;;
3757;SDS011;1894;51.038;13.692;2023-01-28T02:42:47;9.23;;;7.40;;
3757;SDS011;1894;51.038;13.692;2023-01-28T02:45:18;12.00;;;7.43;;
3757;SDS011;1894;51.038;13.692;2023-01-28T02:47:52;14.03;;;8.47;;
3757;SDS011;1894;51.038;13.692;2023-01-28T02:50:30;12.47;;;8.03;;
3757;SDS011;1894;51.038;13.692;2023-01-28T02:53:25;10.53;;;8.80;;
3757;SDS011;1894;51.038;13.692;2023-01-28T02:56:24;9.60;;;7.90;;
3757;SDS011;1894;51.038;13.692;2023-01-28T03:04:47;11.47;;;9.00;;
3757;SDS011;1894;51.038;13.692;2023-01-28T03:07:21;12.17;;;9.03;;
3757;SDS011;1894;51.038;13.692;2023-01-28T03:09:51;12.10;;;8.40;;
3757;SDS011;1894;51.038;13.692;2023-01-28T03:12:24;11.60;;;8.07;;
3757;SDS011;1894;51.038;13.692;2023-01-28T03:15:17;12.07;;;8.87;;
3757;SDS011;1894;51.038;13.692;2023-01-28T03:18:17;17.40;;;9.70;;
3757;SDS011;1894;51.038;13.692;2023-01-28T03:21:25;14.03;;;8.17;;
3757;SDS011;1894;51.038;13.692;2023-01-28T03:24:25;13.47;;;8.20;;
3757;SDS011;1894;51.038;13.692;2023-01-28T03:27:18;15.63;;;8.70;;
3757;SDS011;1894;51.038;13.692;2023-01-28T03:30:27;13.10;;;8.43;;
3757;SDS011;1894;51.038;13.692;2023-01-28T03:33:33;23.70;;;10.03;;
3757;SDS011;1894;51.038;13.692;2023-01-28T03:36:22;11.73;;;7.50;;
3757;SDS011;1894;51.038;13.692;2023-01-28T03:39:17;18.13;;;8.37;;
3757;SDS011;1894;51.038;13.692;2023-01-28T03:41:55;10.33;;;7.10;;
3757;SDS011;1894;51.038;13.692;2023-01-28T03:44:31;9.23;;;6.90;;
3757;SDS011;1894;51.038;13.692;2023-01-28T03:47:20;9.60;;;6.33;;
3757;SDS011;1894;51.038;13.692;2023-01-28T03:49:54;9.93;;;7.60;;
3757;SDS011;1894;51.038;13.692;2023-01-28T03:52:24;13.43;;;7.20;;
3757;SDS011;1894;51.038;13.692;2023-01-28T03:55:17;7.97;;;7.17;;
3757;SDS011;1894;51.038;13.692;2023-01-28T03:57:45;13.07;;;7.90;;
3757;SDS011;1894;51.038;13.692;2023-01-28T04:00:12;9.33;;;8.37;;
3757;SDS011;1894;51.038;13.692;2023-01-28T04:02:42;10.63;;;7.83;;
3757;SDS011;1894;51.038;13.692;2023-01-28T04:05:13;11.43;;;7.70;;
3757;SDS011;1894;51.038;13.692;2023-01-28T04:07:46;11.33;;;7.73;;
3757;SDS011;1894;51.038;13.692;2023-01-28T04:10:20;16.40;;;9.23;;
3757;SDS011;1894;51.038;13.692;2023-01-28T04:12:53;10.87;;;8.00;;
3757;SDS011;1894;51.038;13.692;2023-01-28T04:15:22;11.60;;;7.80;;
3757;SDS011;1894;51.038;13.692;2023-01-28T04:17:49;13.73;;;7.80;;
3757;SDS011;1894;51.038;13.692;2023-01-28T04:20:22;9.00;;;7.10;;
3757;SDS011;1894;51.038;13.692;2023-01-28T04:22:50;6.67;;;6.07;;
3757;SDS011;1894;51.038;13.692;2023-01-28T04:25:20;11.50;;;6.93;;
3757;SDS011;1894;51.038;13.692;2023-01-28T04:27:47;7.67;;;6.17;;
3757;SDS011;1894;51.038;13.692;2023-01-28T04:30:22;8.20;;;6.70;;
3757;SDS011;1894;51.038;13.692;2023-01-28T04:33:19;13.10;;;6.20;;
3757;SDS011;1894;51.038;13.692;2023-01-28T04:35:58;9.40;;;6.67;;
3757;SDS011;1894;51.038;13.692;2023-01-28T04:38:58;12.73;;;6.93;;
3757;SDS011;1894;51.038;13.692;2023-01-28T04:41:25;7.50;;;5.50;;
3757;SDS011;1894;51.038;13.692;2023-01-28T04:43:54;11.67;;;5.93;;
3757;SDS011;1894;51.038;13.692;2023-01-28T04:46:50;6.20;;;5.60;;
3757;SDS011;1894;51.038;13.692;2023-01-28T04:49:39;9.43;;;6.57;;
3757;SDS011;1894;51.038;13.692;2023-01-28T04:52:24;7.07;;;4.97;;
3757;SDS011;1894;51.038;13.692;2023-01-28T04:55:15;6.70;;;5.10;;
3757;SDS011;1894;51.038;13.692;2023-01-28T04:57:45;6.00;;;5.23;;
3757;SDS011;1894;51.038;13.692;2023-01-28T05:00:14;7.73;;;5.10;;
3757;SDS011;1894;51.038;13.692;2023-01-28T05:02:41;8.20;;;5.27;;
3757;SDS011;1894;51.038;13.692;2023-01-28T05:05:09;6.30;;;4.70;;
3757;SDS011;1894;51.038;13.692;2023-01-28T05:07:57;5.13;;;4.63;;
3757;SDS011;1894;51.038;13.692;2023-01-28T05:10:25;7.93;;;4.43;;
3757;SDS011;1894;51.038;13.692;2023-01-28T05:12:53;5.43;;;3.97;;
3757;SDS011;1894;51.038;13.692;2023-01-28T05:15:20;4.00;;;3.57;;
3757;SDS011;1894;51.038;13.692;2023-01-28T05:17:49;4.03;;;3.73;;
3757;SDS011;1894;51.038;13.692;2023-01-28T05:20:22;6.43;;;3.90;;
3757;SDS011;1894;51.038;13.692;2023-01-28T05:22:53;5.73;;;3.70;;
3757;SDS011;1894;51.038;13.692;2023-01-28T05:25:24;9.43;;;5.70;;
3757;SDS011;1894;51.038;13.692;2023-01-28T05:27:53;5.53;;;3.67;;
3757;SDS011;1894;51.038;13.692;2023-01-28T05:30:20;6.10;;;4.40;;
3757;SDS011;1894;51.038;13.692;2023-01-28T05:32:47;8.30;;;4.70;;
3757;SDS011;1894;51.038;13.692;2023-01-28T05:35:19;5.40;;;4.90;;
3757;SDS011;1894;51.038;13.692;2023-01-28T05:37:47;10.90;;;5.90;;
3757;SDS011;1894;51.038;13.692;2023-01-28T05:40:16;5.37;;;4.93;;
3757;SDS011;1894;51.038;13.692;2023-01-28T05:42:43;10.60;;;5.50;;
3757;SDS011;1894;51.038;13.692;2023-01-28T05:45:34;6.20;;;5.17;;
3757;SDS011;1894;51.038;13.692;2023-01-28T05:48:11;6.10;;;5.10;;
3757;SDS011;1894;51.038;13.692;2023-01-28T05:51:03;7.30;;;5.10;;
3757;SDS011;1894;51.038;13.692;2023-01-28T05:53:33;6.30;;;4.10;;
3757;SDS011;1894;51.038;13.692;2023-01-28T05:56:00;5.43;;;4.80;;
3757;SDS011;1894;51.038;13.692;2023-01-28T05:58:30;7.70;;;4.90;;
3757;SDS011;1894;51.038;13.692;2023-01-28T06:01:00;5.73;;;4.90;;
3757;SDS011;1894;51.038;13.692;2023-01-28T06:03:36;8.23;;;4.93;;
3757;SDS011;1894;51.038;13.692;2023-01-28T06:06:04;7.13;;;5.27;;
3757;SDS011;1894;51.038;13.692;2023-01-28T06:08:31;4.30;;;3.90;;
3757;SDS011;1894;51.038;13.692;2023-01-28T06:10:59;8.00;;;4.90;;
3757;SDS011;1894;51.038;13.692;2023-01-28T06:13:30;6.67;;;4.57;;
3757;SDS011;1894;51.038;13.692;2023-01-28T06:16:14;5.10;;;4.53;;
3757;SDS011;1894;51.038;13.692;2023-01-28T06:18:56;9.80;;;4.97;;
3757;SDS011;1894;51.038;13.692;2023-01-28T06:21:23;8.00;;;6.07;;
3757;SDS011;1894;51.038;13.692;2023-01-28T06:23:50;6.37;;;5.77;;
3757;SDS011;1894;51.038;13.692;2023-01-28T06:26:18;6.33;;;4.93;;
3757;SDS011;1894;51.038;13.692;2023-01-28T06:28:45;7.90;;;5.10;;
3757;SDS011;1894;51.038;13.692;2023-01-28T06:31:12;4.57;;;3.87;;
3757;SDS011;1894;51.038;13.692;2023-01-28T06:33:39;5.40;;;4.00;;
3757;SDS011;1894;51.038;13.692;2023-01-28T06:36:07;4.83;;;4.33;;
3757;SDS011;1894;51.038;13.692;2023-01-28T06:38:34;9.30;;;5.30;;
3757;SDS011;1894;51.038;13.692;2023-01-28T06:41:01;4.70;;;4.20;;
3757;SDS011;1894;51.038;13.692;2023-01-28T06:43:28;5.50;;;4.97;;
3757;SDS011;1894;51.038;13.692;2023-01-28T06:45:56;8.73;;;5.03;;
3757;SDS011;1894;51.038;13.692;2023-01-28T06:48:24;5.17;;;4.67;;
3757;SDS011;1894;51.038;13.692;2023-01-28T06:50:52;4.80;;;4.23;;
3757;SDS011;1894;51.038;13.692;2023-01-28T06:53:20;5.37;;;3.90;;
3757;SDS011;1894;51.038;13.692;2023-01-28T06:55:48;5.23;;;3.83;;
3757;SDS011;1894;51.038;13.692;2023-01-28T06:58:15;4.37;;;3.87;;
3757;SDS011;1894;51.038;13.692;2023-01-28T07:00:42;6.20;;;4.00;;
3757;SDS011;1894;51.038;13.692;2023-01-28T07:03:10;3.50;;;3.20;;
3757;SDS011;1894;51.038;13.692;2023-01-28T07:05:37;7.00;;;3.60;;
3757;SDS011;1894;51.038;13.692;2023-01-28T07:08:04;6.40;;;4.20;;
3757;SDS011;1894;51.038;13.692;2023-01-28T07:10:32;4.10;;;3.70;;
3757;SDS011;1894;51.038;13.692;2023-01-28T07:12:59;4.10;;;3.70;;
3757;SDS011;1894;51.038;13.692;2023-01-28T07:15:26;3.80;;;3.33;;
3757;SDS011;1894;51.038;13.692;2023-01-28T07:17:53;8.10;;;3.27;;
3757;SDS011;1894;51.038;13.692;2023-01-28T07:20:20;4.03;;;3.57;;
3757;SDS011;1894;51.038;13.692;2023-01-28T07:22:48;4.87;;;3.87;;
3757;SDS011;1894;51.038;13.692;2023-01-28T07:25:15;4.23;;;3.83;;
3757;SDS011;1894;51.038;13.692;2023-01-28T07:27:46;4.60;;;3.80;;
3757;SDS011;1894;51.038;13.692;2023-01-28T07:30:15;8.93;;;4.70;;
3757;SDS011;1894;51.038;13.692;2023-01-28T07:32:45;5.10;;;3.77;;
3757;SDS011;1894;51.038;13.692;2023-01-28T07:35:12;3.50;;;3.20;;
3757;SDS011;1894;51.038;13.692;2023-01-28T07:37:41;6.63;;;3.70;;
3757;SDS011;1894;51.038;13.692;2023-01-28T07:40:08;3.47;;;3.17;;
3757;SDS011;1894;51.038;13.692;2023-01-28T07:42:36;4.30;;;2.90;;
3757;SDS011;1894;51.038;13.692;2023-01-28T07:45:04;3.67;;;3.10;;
3757;SDS011;1894;51.038;13.692;2023-01-28T07:47:32;3.60;;;2.30;;
3757;SDS011;1894;51.038;13.692;2023-01-28T07:49:59;5.50;;;3.00;;
3757;SDS011;1894;51.038;13.692;2023-01-28T07:52:27;8.77;;;2.80;;
3757;SDS011;1894;51.038;13.692;2023-01-28T07:54:54;3.30;;;2.77;;
3757;SDS011;1894;51.038;13.692;2023-01-28T07:57:21;4.30;;;3.00;;
3757;SDS011;1894;51.038;13.692;2023-01-28T07:59:51;3.43;;;2.63;;
3757;SDS011;1894;51.038;13.692;2023-01-28T08:02:18;2.60;;;2.07;;
3757;SDS011;1894;51.038;13.692;2023-01-28T08:04:45;2.70;;;2.50;;
3757;SDS011;1894;51.038;13.692;2023-01-28T08:07:13;6.10;;;4.80;;
3757;SDS011;1894;51.038;13.692;2023-01-28T08:09:40;3.90;;;2.80;;
3757;SDS011;1894;51.038;13.692;2023-01-28T08:12:07;8.30;;;4.23;;
3757;SDS011;1894;51.038;13.692;2023-01-28T08:14:34;4.20;;;2.50;;
3757;SDS011;1894;51.038;13.692;2023-01-28T08:17:01;2.50;;;1.90;;
3757;SDS011;1894;51.038;13.692;2023-01-28T08:19:29;4.10;;;2.60;;
3757;SDS011;1894;51.038;13.692;2023-01-28T08:21:56;2.70;;;2.30;;
3757;SDS011;1894;51.038;13.692;2023-01-28T08:24:23;6.13;;;3.90;;
3757;SDS011;1894;51.038;13.692;2023-01-28T08:26:50;4.50;;;2.27;;
3757;SDS011;1894;51.038;13.692;2023-01-28T08:29:17;4.60;;;2.80;;
3757;SDS011;1894;51.038;13.692;2023-01-28T08:31:45;2.90;;;1.53;;
3757;SDS011;1894;51.038;13.692;2023-01-28T08:34:12;2.80;;;2.07;;
3757;SDS011;1894;51.038;13.692;2023-01-28T08:36:39;5.87;;;4.63;;
3757;SDS011;1894;51.038;13.692;2023-01-28T08:39:06;8.70;;;2.53;;
3757;SDS011;1894;51.038;13.692;2023-01-28T08:41:33;3.90;;;2.20;;
3757;SDS011;1894;51.038;13.692;2023-01-28T08:44:01;1.87;;;1.37;;
3757;SDS011;1894;51.038;13.692;2023-01-28T08:46:29;4.20;;;2.20;;
3757;SDS011;1894;51.038;13.692;2023-01-28T08:48:56;4.83;;;2.40;;
3757;SDS011;1894;51.038;13.692;2023-01-28T08:51:24;3.63;;;2.13;;
3757;SDS011;1894;51.038;13.692;2023-01-28T08:53:51;2.50;;;2.07;;
3757;SDS011;1894;51.038;13.692;2023-01-28T08:56:18;3.63;;;2.90;;
3757;SDS011;1894;51.038;13.692;2023-01-28T08:58:45;2.70;;;1.90;;
3757;SDS011;1894;51.038;13.692;2023-01-28T09:01:13;2.03;;;1.77;;
3757;SDS011;1894;51.038;13.692;2023-01-28T09:03:40;8.23;;;2.30;;
3757;SDS011;1894;51.038;13.692;2023-01-28T09:06:07;2.60;;;2.00;;
3757;SDS011;1894;51.038;13.692;2023-01-28T09:08:34;4.83;;;2.90;;
3757;SDS011;1894;51.038;13.692;2023-01-28T09:11:02;5.47;;;2.90;;
3757;SDS011;1894;51.038;13.692;2023-01-28T09:13:29;1.80;;;1.67;;
3757;SDS011;1894;51.038;13.692;2023-01-28T09:15:57;3.80;;;2.67;;
3757;SDS011;1894;51.038;13.692;2023-01-28T09:18:24;2.67;;;2.47;;
3757;SDS011;1894;51.038;13.692;2023-01-28T09:20:51;1.83;;;1.73;;
3757;SDS011;1894;51.038;13.692;2023-01-28T09:23:18;3.17;;;1.97;;
3757;SDS011;1894;51.038;13.692;2023-01-28T09:25:46;2.43;;;2.23;;
3757;SDS011;1894;51.038;13.692;2023-01-28T09:28:13;4.43;;;2.73;;
3757;SDS011;1894;51.038;13.692;2023-01-28T09:30:40;3.60;;;2.60;;
3757;SDS011;1894;51.038;13.692;2023-01-28T09:33:08;2.90;;;2.03;;
3757;SDS011;1894;51.038;13.692;2023-01-28T09:35:35;4.00;;;2.30;;
3757;SDS011;1894;51.038;13.692;2023-01-28T09:38:02;3.03;;;2.37;;
3757;SDS011;1894;51.038;13.692;2023-01-28T09:40:33;4.83;;;3.00;;
3757;SDS011;1894;51.038;13.692;2023-01-28T09:45:55;3.47;;;2.27;;
3757;SDS011;1894;51.038;13.692;2023-01-28T09:48:29;3.00;;;2.00;;
3757;SDS011;1894;51.038;13.692;2023-01-28T09:51:19;5.03;;;2.57;;
3757;SDS011;1894;51.038;13.692;2023-01-28T09:54:22;3.80;;;1.90;;
3757;SDS011;1894;51.038;13.692;2023-01-28T09:57:05;2.13;;;2.03;;
3757;SDS011;1894;51.038;13.692;2023-01-28T09:59:40;3.63;;;1.50;;
3757;SDS011;1894;51.038;13.692;2023-01-28T10:10:43;1.77;;;1.37;;
3757;SDS011;1894;51.038;13.692;2023-01-28T10:16:42;4.50;;;2.07;;
3757;SDS011;1894;51.038;13.692;2023-01-28T10:19:20;6.33;;;2.20;;
3757;SDS011;1894;51.038;13.692;2023-01-28T10:21:57;3.03;;;2.17;;
3757;SDS011;1894;51.038;13.692;2023-01-28T10:27:02;4.03;;;2.43;;
3757;SDS011;1894;51.038;13.692;2023-01-28T10:29:43;4.37;;;2.57;;
3757;SDS011;1894;51.038;13.692;2023-01-28T10:32:20;5.23;;;3.10;;
3757;SDS011;1894;51.038;13.692;2023-01-28T10:34:55;4.90;;;2.27;;
3757;SDS011;1894;51.038;13.692;2023-01-28T10:37:29;3.17;;;2.07;;
3757;SDS011;1894;51.038;13.692;2023-01-28T10:40:03;2.80;;;1.40;;
3757;SDS011;1894;51.038;13.692;2023-01-28T10:42:32;2.00;;;1.90;;
3757;SDS011;1894;51.038;13.692;2023-01-28T10:45:06;3.20;;;1.90;;
3757;SDS011;1894;51.038;13.692;2023-01-28T10:51:05;2.70;;;2.07;;
3757;SDS011;1894;51.038;13.692;2023-01-28T10:53:36;1.67;;;1.40;;
3757;SDS011;1894;51.038;13.692;2023-01-28T10:56:13;3.97;;;2.27;;
3757;SDS011;1894;51.038;13.692;2023-01-28T10:59:00;2.57;;;2.10;;
3757;SDS011;1894;51.038;13.692;2023-01-28T11:01:50;2.27;;;1.60;;
3757;SDS011;1894;51.038;13.692;2023-01-28T11:09:31;1.40;;;1.30;;
3757;SDS011;1894;51.038;13.692;2023-01-28T11:12:11;2.63;;;1.80;;
3757;SDS011;1894;51.038;13.692;2023-01-28T11:14:48;3.53;;;1.60;;
3757;SDS011;1894;51.038;13.692;2023-01-28T11:17:31;2.30;;;1.70;;
3757;SDS011;1894;51.038;13.692;2023-01-28T11:20:11;5.07;;;3.37;;
3757;SDS011;1894;51.038;13.692;2023-01-28T11:22:48;3.60;;;2.30;;
3757;SDS011;1894;51.038;13.692;2023-01-28T11:27:53;4.43;;;1.60;;
3757;SDS011;1894;51.038;13.692;2023-01-28T11:30:31;3.70;;;2.33;;
3757;SDS011;1894;51.038;13.692;2023-01-28T11:35:38;2.83;;;1.60;;
3757;SDS011;1894;51.038;13.692;2023-01-28T11:38:19;4.47;;;1.63;;
3757;SDS011;1894;51.038;13.692;2023-01-28T11:40:50;3.10;;;1.40;;
3757;SDS011;1894;51.038;13.692;2023-01-28T11:43:22;5.60;;;1.80;;
3757;SDS011;1894;51.038;13.692;2023-01-28T11:46:00;2.23;;;1.53;;
3757;SDS011;1894;51.038;13.692;2023-01-28T11:48:56;2.40;;;1.73;;
3757;SDS011;1894;51.038;13.692;2023-01-28T11:51:39;7.00;;;1.37;;
3757;SDS011;1894;51.038;13.692;2023-01-28T12:15:33;2.50;;;1.60;;
3757;SDS011;1894;51.038;13.692;2023-01-28T12:27:25;4.87;;;2.03;;
3757;SDS011;1894;51.038;13.692;2023-01-28T12:36:16;3.40;;;2.17;;
3757;SDS011;1894;51.038;13.692;2023-01-28T12:41:41;3.90;;;2.03;;
3757;SDS011;1894;51.038;13.692;2023-01-28T12:44:23;3.40;;;2.10;;
3757;SDS011;1894;51.038;13.692;2023-01-28T12:47:14;1.67;;;1.57;;
3757;SDS011;1894;51.038;13.692;2023-01-28T12:49:52;4.83;;;1.97;;
3757;SDS011;1894;51.038;13.692;2023-01-28T12:52:29;1.70;;;1.60;;
3757;SDS011;1894;51.038;13.692;2023-01-28T12:57:42;4.20;;;2.77;;
3757;SDS011;1894;51.038;13.692;2023-01-28T13:00:45;7.40;;;2.87;;
3757;SDS011;1894;51.038;13.692;2023-01-28T13:06:09;12.10;;;4.50;;
3757;SDS011;1894;51.038;13.692;2023-01-28T13:09:02;1.37;;;1.27;;
3757;SDS011;1894;51.038;13.692;2023-01-28T13:11:45;2.43;;;1.83;;
3757;SDS011;1894;51.038;13.692;2023-01-28T13:14:17;3.63;;;2.47;;
3757;SDS011;1894;51.038;13.692;2023-01-28T13:16:48;5.90;;;3.30;;
3757;SDS011;1894;51.038;13.692;2023-01-28T13:21:45;2.90;;;2.30;;
3757;SDS011;1894;51.038;13.692;2023-01-28T13:26:43;2.30;;;1.40;;
3757;SDS011;1894;51.038;13.692;2023-01-28T13:31:42;3.80;;;2.57;;
3757;SDS011;1894;51.038;13.692;2023-01-28T13:40:00;3.50;;;2.30;;
3757;SDS011;1894;51.038;13.692;2023-01-28T13:43:03;3.90;;;2.13;;
3757;SDS011;1894;51.038;13.692;2023-01-28T13:45:54;8.93;;;3.30;;
3757;SDS011;1894;51.038;13.692;2023-01-28T13:48:44;3.27;;;2.00;;
3757;SDS011;1894;51.038;13.692;2023-01-28T13:51:19;3.43;;;2.03;;
3757;SDS011;1894;51.038;13.692;2023-01-28T14:17:51;3.23;;;1.80;;
3757;SDS011;1894;51.038;13.692;2023-01-28T14:20:22;3.10;;;1.97;;
3757;SDS011;1894;51.038;13.692;2023-01-28T14:22:57;4.13;;;1.60;;
3757;SDS011;1894;51.038;13.692;2023-01-28T14:25:29;6.70;;;1.70;;
3757;SDS011;1894;51.038;13.692;2023-01-28T14:28:13;2.87;;;1.67;;
3757;SDS011;1894;51.038;13.692;2023-01-28T14:30:55;2.07;;;1.67;;
3757;SDS011;1894;51.038;13.692;2023-01-28T14:33:42;4.07;;;2.50;;
3757;SDS011;1894;51.038;13.692;2023-01-28T14:36:10;2.60;;;2.03;;
3757;SDS011;1894;51.038;13.692;2023-01-28T14:38:38;2.20;;;1.90;;
3757;SDS011;1894;51.038;13.692;2023-01-28T14:41:09;7.73;;;2.40;;
3757;SDS011;1894;51.038;13.692;2023-01-28T14:43:47;4.83;;;1.97;;
3757;SDS011;1894;51.038;13.692;2023-01-28T14:46:23;4.80;;;1.70;;
3757;SDS011;1894;51.038;13.692;2023-01-28T14:52:01;3.70;;;2.07;;
3757;SDS011;1894;51.038;13.692;2023-01-28T14:54:59;3.20;;;2.10;;
3757;SDS011;1894;51.038;13.692;2023-01-28T14:57:50;4.00;;;1.80;;
3757;SDS011;1894;51.038;13.692;2023-01-28T15:00:27;3.13;;;1.60;;
3757;SDS011;1894;51.038;13.692;2023-01-28T15:02:57;5.37;;;2.57;;
3757;SDS011;1894;51.038;13.692;2023-01-28T15:05:26;3.53;;;1.80;;
3757;SDS011;1894;51.038;13.692;2023-01-28T15:07:54;1.83;;;1.70;;
3757;SDS011;1894;51.038;13.692;2023-01-28T15:10:26;2.53;;;2.23;;
3757;SDS011;1894;51.038;13.692;2023-01-28T15:15:34;2.80;;;1.90;;
3757;SDS011;1894;51.038;13.692;2023-01-28T15:18:13;3.37;;;1.97;;
3757;SDS011;1894;51.038;13.692;2023-01-28T15:20:50;6.93;;;1.67;;
3757;SDS011;1894;51.038;13.692;2023-01-28T15:23:27;1.83;;;1.73;;
3757;SDS011;1894;51.038;13.692;2023-01-28T15:26:03;3.37;;;1.60;;
3757;SDS011;1894;51.038;13.692;2023-01-28T15:28:41;6.60;;;3.30;;
3757;SDS011;1894;51.038;13.692;2023-01-28T15:31:21;6.57;;;1.73;;
3757;SDS011;1894;51.038;13.692;2023-01-28T15:36:25;2.10;;;1.47;;
3757;SDS011;1894;51.038;13.692;2023-01-28T15:38:53;1.83;;;1.57;;
3757;SDS011;1894;51.038;13.692;2023-01-28T15:41:22;2.60;;;1.70;;
3757;SDS011;1894;51.038;13.692;2023-01-28T15:43:54;3.63;;;2.03;;
3757;SDS011;1894;51.038;13.692;2023-01-28T15:46:22;2.97;;;2.10;;
3757;SDS011;1894;51.038;13.692;2023-01-28T15:48:57;2.10;;;1.50;;
3757;SDS011;1894;51.038;13.692;2023-01-28T15:51:30;2.97;;;1.60;;
3757;SDS011;1894;51.038;13.692;2023-01-28T15:54:03;5.50;;;2.20;;
3757;SDS011;1894;51.038;13.692;2023-01-28T15:56:35;6.80;;;2.60;;
3757;SDS011;1894;51.038;13.692;2023-01-28T15:59:07;3.10;;;1.97;;
3757;SDS011;1894;51.038;13.692;2023-01-28T16:01:47;1.30;;;1.17;;
3757;SDS011;1894;51.038;13.692;2023-01-28T16:04:22;2.73;;;1.50;;
3757;SDS011;1894;51.038;13.692;2023-01-28T16:06:53;2.30;;;1.97;;
3757;SDS011;1894;51.038;13.692;2023-01-28T16:09:27;2.90;;;2.03;;
3757;SDS011;1894;51.038;13.692;2023-01-28T16:12:05;3.30;;;1.40;;
3757;SDS011;1894;51.038;13.692;2023-01-28T16:17:08;5.93;;;3.20;;
3757;SDS011;1894;51.038;13.692;2023-01-28T16:19:42;3.07;;;2.03;;
3757;SDS011;1894;51.038;13.692;2023-01-28T16:22:18;5.53;;;1.67;;
3757;SDS011;1894;51.038;13.692;2023-01-28T16:27:56;11.53;;;3.27;;
3757;SDS011;1894;51.038;13.692;2023-01-28T16:30:25;4.20;;;1.63;;
3757;SDS011;1894;51.038;13.692;2023-01-28T16:32:53;2.67;;;1.90;;
3757;SDS011;1894;51.038;13.692;2023-01-28T16:35:22;10.50;;;4.30;;
3757;SDS011;1894;51.038;13.692;2023-01-28T16:38:08;2.93;;;1.57;;
3757;SDS011;1894;51.038;13.692;2023-01-28T16:40:35;1.60;;;1.20;;
3757;SDS011;1894;51.038;13.692;2023-01-28T16:43:04;1.10;;;1.00;;
3757;SDS011;1894;51.038;13.692;2023-01-28T16:45:31;3.80;;;1.53;;
3757;SDS011;1894;51.038;13.692;2023-01-28T16:47:58;4.37;;;2.67;;
3757;SDS011;1894;51.038;13.692;2023-01-28T16:50:25;2.70;;;2.10;;
3757;SDS011;1894;51.038;13.692;2023-01-28T16:52:52;6.23;;;3.33;;
3757;SDS011;1894;51.038;13.692;2023-01-28T16:55:21;4.23;;;2.87;;
3757;SDS011;1894;51.038;13.692;2023-01-28T16:57:50;2.57;;;1.30;;
3757;SDS011;1894;51.038;13.692;2023-01-28T17:00:23;9.70;;;2.33;;
3757;SDS011;1894;51.038;13.692;2023-01-28T17:02:53;2.10;;;1.60;;
3757;SDS011;1894;51.038;13.692;2023-01-28T17:05:20;2.83;;;1.50;;
3757;SDS011;1894;51.038;13.692;2023-01-28T17:07:49;3.37;;;1.63;;
3757;SDS011;1894;51.038;13.692;2023-01-28T17:10:16;3.23;;;2.03;;
3757;SDS011;1894;51.038;13.692;2023-01-28T17:12:49;4.27;;;1.97;;
3757;SDS011;1894;51.038;13.692;2023-01-28T17:15:16;0.93;;;0.87;;
3757;SDS011;1894;51.038;13.692;2023-01-28T17:17:46;1.47;;;1.10;;
3757;SDS011;1894;51.038;13.692;2023-01-28T17:20:14;2.50;;;1.93;;
3757;SDS011;1894;51.038;13.692;2023-01-28T17:22:42;2.23;;;1.47;;
3757;SDS011;1894;51.038;13.692;2023-01-28T17:25:11;1.73;;;1.10;;
3757;SDS011;1894;51.038;13.692;2023-01-28T17:27:40;6.20;;;1.90;;
3757;SDS011;1894;51.038;13.692;2023-01-28T17:30:07;3.00;;;2.40;;
3757;SDS011;1894;51.038;13.692;2023-01-28T17:32:35;13.47;;;2.17;;
3757;SDS011;1894;51.038;13.692;2023-01-28T17:35:02;1.90;;;1.80;;
3757;SDS011;1894;51.038;13.692;2023-01-28T17:37:30;3.30;;;2.10;;
3757;SDS011;1894;51.038;13.692;2023-01-28T17:39:57;2.33;;;2.00;;
3757;SDS011;1894;51.038;13.692;2023-01-28T17:42:25;3.87;;;2.23;;
3757;SDS011;1894;51.038;13.692;2023-01-28T17:44:53;5.17;;;3.13;;
3757;SDS011;1894;51.038;13.692;2023-01-28T17:47:21;4.43;;;2.83;;
3757;SDS011;1894;51.038;13.692;2023-01-28T17:49:48;6.23;;;3.27;;
3757;SDS011;1894;51.038;13.692;2023-01-28T17:52:15;2.80;;;2.60;;
3757;SDS011;1894;51.038;13.692;2023-01-28T17:54:42;5.97;;;2.13;;